Du har inga inställningar för hoppväder.nu

Hoppväder.nu

Senast uppdaterat 21:13

UTC-tid

2019-09-19 kl. 19:13


Sol och måne

Solen går upp 6:51 och går ner 20:04 (beräknade cirkatider)
Nästa fullmåne blir om 24 dagar (2019-10-13)

METAR

ESMX (Växjö)
(23 minuter sedan)
ESMX 191850Z 26002KT CAVOK 05/03 Q1025=



ESMT (Halmstad)
(53 minuter sedan)
ESMT 191820Z 36003KT CAVOK 09/04 Q1026=



ESGJ (Jönköping)
(23 minuter sedan)
ESGJ 191850Z 26004KT CAVOK 06/03 Q1024=



ESMK (Everöd)
(23 minuter sedan)
ESMK 191850Z AUTO 28006KT 9999 NCD 09/04 Q1025=






TAF

ESMX (Växjö)
(103 minuter sedan)
ESMX 191730Z 1918/2001 30005KT CAVOK=



ESMT (Halmstad)
(134 minuter sedan)
ESMT 191659Z 1918/1921 32006KT 9999 FEW040=



ESGJ (Jönköping)
(103 minuter sedan)
ESGJ 191730Z 1918/2001 28004KT CAVOK=



ESMK (Everöd)
(134 minuter sedan)
ESMK 191659Z 1918/1920 30008KT 9999 FEW040=





Kodnycklar till TAF och METAR






LHP

(Feringe är område K2c i Sydöstra delen)

ÖVERSIKT FÖR OMRÅDE A UTFÄRDAD 191117
GÄLLANDE DEN 19 SEPTEMBER 2019 MELLAN 12 OCH 20 UTC


Väderöversikt

En högtrycksrygg täcker södra Sverige och rör sig österut

Sikt under 5 kilometer eller molnbas under 1000 fot
Väntas inte förekomma under perioden.

Måttlig eller svår isbildning
Väntas inte förekomma under perioden

Måttlig eller svår turbulens
Väntas inte förekomma under perioden

PROGNOS FÖR OMRÅDE A DEN SYDÖSTRA DELEN UTFÄRDAD 191117
GÄLLANDE DEN 19 SEPTEMBER 2019 MELLAN 12 OCH 20 UTC

Måttlig eller svår turbulens
12-20UTC: I hela området: Väntas inte förekomma under perioden

Måttlig eller svår isbildning
12-20UTC: I hela området: Väntas inte förekomma under perioden

Sikt/Väder/Moln
12-20UTC: I hela området: Sikt >8km. Molnbas >2000ft.

Molnöversida
12-20UTC: I hela området: Ingen prognos

CB/TCU Moln
12-20UTC: I hela området: Väntas inte förekomma under perioden

Nollgradersisoterm
12-20UTC: Noll grader 4000ft - FL050.

Vind vid marken
12-14UTC: Område K2a: NV/6-11 knop, byar upp till 21 knop.
Område K3c: NV/1-16 knop, byar upp till 21 knop.
Område K1b: NV-N/0-13 knop, byar upp till 21 knop.
Område K2c: NV/5-12 knop, byar upp till 19 knop.
Område K3a: NV/6-10 knop, byar upp till 20 knop.
Område K1a: NV/4-16 knop, byar upp till 22 knop.
Område K1c: NV-N/0-19 knop, byar upp till 24 knop.
Område K1d: NV-N/5-22 knop, byar upp till 29 knop.
Område K3b: NV-N/6-8 knop, byar upp till 20 knop.
Område K2b: NV/7-9 knop, byar upp till 21 knop.
Område K3d: NV/7-18 knop, byar upp till 25 knop.

12-16UTC: Område K2d: NV/6-13 knop, byar upp till 20 knop.

14-16UTC: Område K1b: NV/2-13 knop, byar upp till 21 knop.
Område K1a: NV-N/7-16 knop, byar upp till 22 knop.
Område K1c: NV-N/4-19 knop, byar upp till 24 knop.
Område K3d: NV/3-15 knop, byar upp till 21 knop.
Område K3b: NV/6-8 knop, byar upp till 19 knop.
Område K1d: NV-N/2-20 knop, byar upp till 28 knop.
Område K3c: NV/0-17 knop, byar upp till 21 knop.
Område K2c: NV/4-14 knop, byar upp till 21 knop.
Område K2b: NV/6-9 knop, byar upp till 21 knop.
Område K2a: NV/5-11 knop, byar upp till 21 knop.
Område K3a: NV/5-9 knop, byar upp till 19 knop.

16-18UTC: Område K1c: NV-N/4-18 knop, byar upp till 24 knop.
Område K1b: NV/3-13 knop, byar upp till 19 knop.
Område K2b: NV/2-6 knop, byar upp till 16 knop.
Område K1a: NV-N/3-16 knop, byar upp till 21 knop.
Område K2a: NV/2-8 knop, byar upp till 17 knop.
Område K2c: NV/1-10 knop, byar upp till 19 knop.
Område K3c: NV/4-18 knop, byar upp till 22 knop.
Område K2d: NV/2-11 knop, byar upp till 18 knop.
Område K3a: NV/3-7 knop, byar upp till 17 knop.
Område K1d: NV-N/0-18 knop, byar upp till 25 knop.
Område K3b: NV/4-6 knop, byar upp till 17 knop.
Område K3d: NV/6-18 knop, byar upp till 22 knop.

18-20UTC: Område K1c: NV-N/3-17 knop, byar upp till 22 knop.
Område K3b: NV/2-4 knop.
Område K2b: W-NV/1-3 knop.
Område K1a: NV/2-14 knop, byar upp till 20 knop.
Område K1b: NV/2-13 knop, byar upp till 16 knop.
Område K1d: N/1-17 knop, byar upp till 22 knop.
Område K3a: NV/2-6 knop.
Område K3d: NV/11-20 knop, byar upp till 26 knop.
Område K2a: W-NV/1-4 knop.
Område K2d: NV/1-11 knop, byar upp till 16 knop.
Område K3c: NV/3-19 knop, byar upp till 24 knop.
Område K2c: W-NV/0-9 knop, byar upp till 14 knop.


Genomsnittlig vind och temperatur för området
2000ft:
12-16UTC: 330/16kt +6.
16-18UTC: 330/17kt +6.
18-20UTC: 340/17kt +6.

FL50:
12-14UTC: 340/19kt +0.
14-16UTC: 340/18kt +0.
16-18UTC: 340/16kt +0.
18-20UTC: 340/13kt -1.

FL100:
12-14UTC: 330/20kt -11.
14-16UTC: 320/22kt -11.
16-18UTC: 330/23kt -11.
18-20UTC: 330/24kt -11.

Lägsta QNH
1021 hPa.

OBS! endast utbredd måttlig eller svår isbildning och turbulens prognostiseras i LLF.
Avsaknad av isbildning och turbulens i prognosen utesluter inte förekomst av lätt isbildning och turbulens.
För indikation på lätt isbildning, var vänlig kontrollera om prognosen för molntopp ligger högre än nollgradersisotermen.
Förekomst av TCU eller CB medför alltid en risk för måttlig eller svår isbildning och turbulens även om det inte framgår explicit av prognosen.





Spotting

Hur fungerar spotthjälpen och Vindkartan?

Markvind är ca 0-5 m/s med byar på 7 m/s.
Vind på 600 m ca 9 m/s.
Vind på 1500 m ca 7 m/s.
Vind på 3000 m ca 12 m/s.
Filip Helge flyger ca 29 m/s över marken på finalen.
Du driver ca 556 m bakåt i frifall. (741 m)
Lämplig spot är 9 sekunder eller 259 m efter gropen.
(16 s eller 461 m)
För små grupper eller ensamhoppare bör man vänta 5-7 sekunder mellan grupperna.
För större grupper bör man vänta 10-13 sekunder mellan grupperna.


Vindkartan

Senast uppdaterad 21:13




All data kommer från LFV.se